Terminal Aerodrome Forecast
Issued by NWS

Current Version | Previous Version | Graphics & Text | Print | Product List | Glossary On
Versions: 1 2 3 4 5 6 7 8 9 10 11 12 13 14 15 16 17 18
000
FTUS41 KILN 251100
TAFLCK
TAF
KLCK 251133Z 2512/2612 09003KT P6SM FEW050 BKN200
     FM251300 14005KT P6SM SCT050
     FM260000 12003KT P6SM SKC=

USA.gov is the U.S. government's official web portal to all federal, state and local government web resources and services.